createdAt,value
2018-05-25T00:01:19.845Z,6.33
2018-05-25T00:05:22.375Z,5.80
2018-05-25T00:09:24.910Z,5.93
2018-05-25T00:13:27.436Z,5.53
2018-05-25T00:17:29.951Z,5.20
2018-05-25T00:21:32.481Z,5.10
2018-05-25T00:25:35.019Z,4.30
2018-05-25T00:29:37.552Z,4.80
2018-05-25T00:33:40.093Z,4.73
2018-05-25T00:41:51.400Z,4.00
2018-05-25T00:45:53.938Z,4.10
2018-05-25T00:49:56.475Z,3.90
2018-05-25T00:53:59.012Z,4.03
2018-05-25T00:58:01.527Z,3.90
2018-05-25T01:02:04.063Z,3.63
2018-05-25T01:06:06.604Z,3.80
2018-05-25T01:10:11.669Z,3.73
2018-05-25T01:14:14.212Z,3.73
2018-05-25T01:18:16.732Z,4.00
2018-05-25T01:22:19.268Z,3.47
2018-05-25T01:26:21.800Z,3.87
2018-05-25T01:30:24.344Z,4.17
2018-05-25T01:34:26.887Z,4.10
2018-05-25T01:38:29.428Z,4.00
2018-05-25T01:42:31.974Z,4.17
2018-05-25T01:46:34.508Z,4.00
2018-05-25T01:50:37.040Z,3.80
2018-05-25T01:54:39.572Z,4.17
2018-05-25T01:58:42.108Z,4.20
2018-05-25T02:02:44.624Z,4.40
2018-05-25T02:06:47.176Z,4.23
2018-05-25T02:10:49.717Z,4.37
2018-05-25T02:14:52.256Z,4.57
2018-05-25T02:18:54.800Z,4.20
2018-05-25T02:22:57.328Z,4.53
2018-05-25T02:26:59.872Z,4.27
2018-05-25T02:31:02.414Z,4.47
2018-05-25T02:35:04.961Z,5.10
2018-05-25T02:39:07.498Z,4.50
2018-05-25T02:43:10.027Z,4.37
2018-05-25T02:47:13.324Z,4.20
2018-05-25T02:51:15.855Z,4.47
2018-05-25T02:55:18.388Z,4.70
2018-05-25T02:59:20.924Z,4.67
2018-05-25T03:03:23.444Z,4.70
2018-05-25T03:07:25.982Z,4.70
2018-05-25T03:11:28.520Z,4.80
2018-05-25T03:15:31.065Z,4.10
2018-05-25T03:19:33.596Z,4.83
2018-05-25T03:23:36.117Z,4.83
2018-05-25T03:27:38.651Z,4.10
2018-05-25T03:31:41.196Z,4.33
2018-05-25T03:35:43.740Z,4.60
2018-05-25T03:39:46.284Z,4.80
2018-05-25T03:43:48.796Z,4.90
2018-05-25T03:47:51.327Z,4.73
2018-05-25T03:51:53.859Z,4.83
2018-05-25T03:55:56.412Z,4.33
2018-05-25T04:00:10.677Z,4.63
2018-05-25T04:04:13.225Z,4.80
2018-05-25T04:08:16.563Z,4.40
2018-05-25T04:12:19.101Z,4.57
2018-05-25T04:16:21.637Z,4.70
2018-05-25T04:20:24.173Z,4.27
2018-05-25T04:24:26.688Z,4.10
2018-05-25T04:28:29.216Z,4.33
2018-05-25T04:32:31.757Z,5.27
2018-05-25T04:36:34.288Z,4.53
2018-05-25T04:40:36.820Z,4.90
2018-05-25T04:44:39.336Z,4.60
2018-05-25T04:48:41.880Z,4.80
2018-05-25T04:52:44.412Z,4.97
2018-05-25T04:56:46.944Z,4.43
2018-05-25T05:00:50.384Z,4.50
2018-05-25T05:04:52.943Z,4.60
2018-05-25T05:08:55.460Z,4.67
2018-05-25T05:12:57.992Z,4.30
2018-05-25T05:17:00.541Z,4.90
2018-05-25T05:21:03.071Z,4.60
2018-05-25T05:25:05.606Z,4.80
2018-05-25T05:29:08.125Z,4.97
2018-05-25T05:33:10.660Z,4.40
2018-05-25T05:37:13.200Z,4.70
2018-05-25T05:41:15.732Z,4.70
2018-05-25T05:45:18.268Z,4.80
2018-05-25T05:49:20.784Z,4.80
2018-05-25T05:53:23.324Z,5.03
2018-05-25T05:57:25.858Z,5.20
2018-05-25T06:01:28.392Z,4.87
2018-05-25T06:05:30.932Z,5.23
2018-05-25T06:09:33.448Z,5.30
2018-05-25T06:13:35.988Z,5.50
2018-05-25T06:17:38.528Z,4.63
2018-05-25T06:21:41.072Z,5.43
2018-05-25T06:25:43.616Z,5.33
2018-05-25T06:29:46.132Z,5.60
2018-05-25T06:33:48.678Z,5.10
2018-05-25T06:37:51.224Z,5.37
2018-05-25T06:41:53.760Z,5.30
2018-05-25T06:45:56.302Z,5.30
2018-05-25T06:49:58.824Z,5.40
2018-05-25T06:54:01.361Z,5.00
2018-05-25T06:58:03.909Z,5.07
2018-05-25T07:02:07.212Z,5.60
2018-05-25T07:06:09.752Z,5.50
2018-05-25T07:10:12.268Z,5.33
2018-05-25T07:14:14.809Z,5.43
2018-05-25T07:18:17.344Z,5.70
2018-05-25T07:22:19.889Z,6.03
2018-05-25T07:26:22.428Z,6.07
2018-05-25T07:30:24.949Z,5.97
2018-05-25T07:34:27.495Z,6.10
2018-05-25T07:38:30.032Z,6.07
2018-05-25T07:42:32.569Z,5.67
2018-05-25T07:46:35.104Z,5.40
2018-05-25T07:50:37.648Z,5.67
2018-05-25T07:54:40.181Z,6.10
2018-05-25T07:58:42.720Z,6.10
2018-05-25T08:02:45.255Z,5.53
2018-05-25T08:06:47.796Z,6.10
2018-05-25T08:10:50.328Z,5.73
2018-05-25T08:14:52.843Z,6.27
2018-05-25T08:18:55.384Z,5.80
2018-05-25T08:22:57.921Z,5.83
2018-05-25T08:27:01.229Z,5.67
2018-05-25T08:31:03.771Z,5.77
2018-05-25T08:35:06.295Z,5.63
2018-05-25T08:39:08.827Z,5.47
2018-05-25T08:43:11.368Z,5.90
2018-05-25T08:47:13.911Z,6.10
2018-05-25T08:51:16.440Z,5.67
2018-05-25T08:55:18.956Z,5.90
2018-05-25T08:59:21.500Z,5.83
2018-05-25T09:03:24.043Z,6.30
2018-05-25T09:07:26.580Z,6.00
2018-05-25T09:11:29.108Z,4.70
2018-05-25T09:15:31.633Z,5.87
2018-05-25T09:19:34.172Z,6.17
2018-05-25T09:23:36.705Z,6.33
2018-05-25T09:27:39.243Z,5.93
2018-05-25T09:31:41.780Z,6.00
2018-05-25T09:35:44.295Z,5.63
2018-05-25T09:39:46.840Z,5.70
2018-05-25T09:43:49.376Z,5.70
2018-05-25T09:47:51.912Z,5.37
2018-05-25T09:51:54.448Z,5.27
2018-05-25T09:55:56.969Z,5.80
2018-05-25T10:00:00.280Z,5.77
2018-05-25T10:04:02.819Z,5.07
2018-05-25T10:08:05.367Z,5.40
2018-05-25T10:12:07.913Z,4.77
2018-05-25T10:16:10.428Z,5.57
2018-05-25T10:20:12.977Z,5.43
2018-05-25T10:24:15.516Z,5.00
2018-05-25T10:28:18.052Z,5.10
2018-05-25T10:32:20.590Z,4.83
2018-05-25T10:36:23.136Z,4.80
2018-05-25T10:40:25.668Z,4.50
2018-05-25T10:44:28.209Z,4.10
2018-05-25T10:48:30.756Z,4.07
2018-05-25T10:52:33.291Z,4.27
2018-05-25T10:56:35.832Z,3.93
2018-05-25T11:00:38.372Z,3.80
2018-05-25T11:04:40.908Z,3.77
2018-05-25T11:08:43.449Z,4.13
2018-05-25T11:12:45.980Z,4.07
2018-05-25T11:16:48.516Z,3.97
2018-05-25T11:20:51.034Z,3.67
2018-05-25T11:24:53.576Z,3.70
2018-05-25T11:28:56.111Z,3.50
2018-05-25T11:32:58.647Z,4.17
2018-05-25T11:37:01.193Z,3.95
2018-05-25T11:41:05.405Z,4.00
2018-05-25T11:45:07.941Z,3.60
2018-05-25T11:49:10.483Z,3.75
2018-05-25T11:53:13.028Z,3.80
2018-05-25T11:57:16.331Z,4.00
2018-05-25T12:01:18.848Z,3.77
2018-05-25T12:05:21.391Z,3.40
2018-05-25T12:09:23.923Z,3.60
2018-05-25T12:13:26.479Z,3.70
2018-05-25T12:17:29.012Z,4.18
2018-05-25T12:21:32.307Z,3.60
2018-05-25T12:25:34.860Z,3.75
2018-05-25T12:29:37.400Z,3.40
2018-05-25T12:33:39.937Z,3.70
2018-05-25T12:37:42.500Z,3.80
2018-05-25T12:41:45.041Z,4.03
2018-05-25T12:45:47.585Z,3.55
2018-05-25T12:49:50.124Z,3.50
2018-05-25T12:53:52.672Z,3.80
2018-05-25T12:57:55.216Z,3.73
2018-05-25T13:01:57.751Z,4.03
2018-05-25T13:06:00.288Z,3.50
2018-05-25T13:10:02.833Z,3.70
2018-05-25T13:14:05.390Z,3.63
2018-05-25T13:18:07.936Z,4.30
2018-05-25T13:22:10.459Z,4.18
2018-05-25T13:26:13.004Z,4.10
2018-05-25T13:30:15.551Z,4.13
2018-05-25T13:34:18.865Z,4.53
2018-05-25T13:38:22.169Z,4.07
2018-05-25T13:42:25.466Z,4.40
2018-05-25T13:46:28.021Z,4.30
2018-05-25T13:50:30.568Z,4.73
2018-05-25T13:54:33.108Z,4.13
2018-05-25T13:58:35.660Z,4.13
2018-05-25T14:02:38.225Z,4.30
2018-05-25T14:06:40.756Z,4.07
2018-05-25T14:10:43.296Z,4.00
2018-05-25T14:14:45.838Z,3.90
2018-05-25T14:18:49.149Z,4.05
2018-05-25T14:22:51.696Z,4.07
2018-05-25T14:26:54.211Z,4.25
2018-05-25T14:30:56.756Z,4.12
2018-05-25T14:34:59.304Z,4.65
2018-05-25T14:39:01.856Z,4.55
2018-05-25T14:43:04.399Z,4.45
2018-05-25T14:47:06.984Z,4.27
2018-05-25T14:51:09.491Z,4.80
2018-05-25T14:55:12.035Z,4.27
2018-05-25T14:59:14.572Z,4.47
2018-05-25T15:03:17.108Z,4.80
2018-05-25T15:07:19.632Z,4.57
2018-05-25T15:11:22.177Z,4.50
2018-05-25T15:15:24.724Z,4.70
2018-05-25T15:19:27.264Z,4.53
2018-05-25T15:23:29.808Z,4.27
2018-05-25T15:27:32.348Z,4.20
2018-05-25T15:31:34.900Z,4.33
2018-05-25T15:35:37.437Z,4.20
2018-05-25T15:39:39.980Z,4.20
2018-05-25T15:43:42.519Z,4.23
2018-05-25T15:47:45.044Z,4.13
2018-05-25T15:51:47.587Z,4.13
2018-05-25T15:55:50.133Z,4.07
2018-05-25T15:59:52.667Z,3.77
2018-05-25T16:03:55.229Z,3.67
2018-05-25T16:07:57.748Z,4.20
2018-05-25T16:12:01.065Z,3.80
2018-05-25T16:16:03.624Z,4.40
2018-05-25T16:20:06.168Z,3.70
2018-05-25T16:24:08.700Z,4.40
2018-05-25T16:28:11.987Z,4.47
2018-05-25T16:32:14.531Z,3.90
2018-05-25T16:36:17.077Z,4.10
2018-05-25T16:40:19.625Z,4.07
2018-05-25T16:44:22.168Z,4.03
2018-05-25T16:48:24.708Z,3.60
2018-05-25T16:52:27.240Z,3.90
2018-05-25T16:56:29.780Z,3.70
2018-05-25T18:21:04.359Z,4.17
2018-05-25T18:25:06.892Z,3.80
2018-05-25T18:29:09.427Z,4.25
2018-05-25T18:33:11.940Z,4.20
2018-05-25T18:37:14.471Z,4.47
2018-05-25T18:41:17.770Z,4.27
2018-05-25T18:45:20.391Z,4.70
2018-05-25T18:49:22.967Z,4.00
2018-05-25T18:53:25.591Z,4.33
2018-05-25T18:57:28.395Z,5.23
2018-05-25T19:01:30.947Z,4.50
2018-05-25T19:05:33.649Z,4.47
2018-05-25T19:09:37.003Z,4.73
2018-05-25T19:13:40.462Z,4.50
2018-05-25T19:17:43.103Z,4.27
2018-05-25T19:21:49.063Z,4.57
2018-05-25T19:25:51.800Z,4.80
2018-05-25T19:29:54.505Z,4.47
2018-05-25T19:33:57.308Z,4.70
2018-05-25T19:37:59.945Z,4.70
2018-05-25T19:42:02.652Z,4.87
2018-05-25T19:46:05.409Z,5.00
2018-05-25T19:50:08.716Z,5.27
2018-05-25T19:54:11.228Z,4.70
2018-05-25T19:58:13.830Z,5.43
2018-05-25T20:02:17.079Z,5.07
2018-05-25T20:06:19.631Z,4.57
2018-05-25T20:10:22.181Z,5.00
2018-05-25T20:14:24.700Z,4.37
2018-05-25T20:18:27.229Z,4.13
2018-05-25T20:22:29.759Z,5.10
2018-05-25T20:26:32.284Z,5.13
2018-05-25T20:30:35.581Z,4.70
2018-05-25T20:34:38.868Z,4.33
2018-05-25T20:38:41.417Z,4.60
2018-05-25T20:42:43.967Z,4.33
2018-05-25T20:46:46.504Z,4.93
2018-05-25T20:50:49.039Z,4.50
2018-05-25T20:54:51.564Z,4.30
2018-05-25T20:58:54.097Z,4.53
2018-05-25T21:02:56.644Z,4.37
2018-05-25T21:06:59.182Z,3.97
2018-05-25T21:11:01.707Z,4.20
2018-05-25T21:15:04.235Z,4.20
2018-05-25T21:19:07.532Z,3.50
2018-05-25T21:23:10.856Z,3.50
2018-05-25T21:27:13.392Z,4.40
2018-05-25T21:31:15.919Z,4.47
2018-05-25T21:35:19.220Z,4.10
2018-05-25T21:39:22.496Z,3.67
2018-05-25T21:43:25.024Z,3.87
2018-05-25T21:47:27.556Z,3.77
2018-05-25T21:51:30.207Z,4.17
2018-05-25T21:55:32.781Z,3.80
2018-05-25T21:59:35.412Z,3.40
2018-05-25T22:03:38.002Z,3.20
2018-05-25T22:07:40.555Z,3.83
2018-05-25T22:11:43.906Z,3.40
2018-05-25T22:15:46.491Z,3.33
2018-05-25T22:19:49.028Z,3.80
2018-05-25T22:23:51.620Z,4.30
2018-05-25T22:27:54.198Z,3.87
2018-05-25T22:31:56.803Z,3.67
2018-05-25T22:35:59.428Z,3.20
2018-05-25T22:40:02.009Z,3.37
2018-05-25T22:44:16.432Z,3.00
2018-05-25T22:48:30.774Z,3.10
2018-05-25T22:52:38.660Z,2.90
2018-05-25T22:56:41.963Z,3.17
2018-05-25T23:00:45.276Z,3.47
2018-05-25T23:04:47.803Z,3.20
2018-05-25T23:08:50.331Z,3.17
2018-05-25T23:12:53.622Z,2.87
2018-05-25T23:16:56.156Z,3.03
2018-05-25T23:20:58.671Z,3.33
2018-05-25T23:25:01.208Z,3.00
2018-05-25T23:29:03.741Z,3.10
2018-05-25T23:33:06.275Z,2.87
2018-05-25T23:37:08.833Z,3.00
2018-05-25T23:41:11.367Z,2.67
2018-05-25T23:45:13.895Z,2.80
2018-05-25T23:49:16.418Z,2.80
2018-05-25T23:53:18.956Z,3.03
2018-05-25T23:57:21.493Z,3.13
